createdAt,value
2019-04-06T00:02:08.412Z,76.60
2019-04-06T00:04:36.121Z,77.10
2019-04-06T00:07:03.790Z,77.30
2019-04-06T00:09:31.235Z,77.40
2019-04-06T00:11:58.720Z,77.80
2019-04-06T00:14:26.191Z,78.20
2019-04-06T00:16:54.015Z,78.40
2019-04-06T00:19:22.008Z,77.90
2019-04-06T00:21:49.490Z,77.70
2019-04-06T00:24:17.563Z,77.40
2019-04-06T00:26:45.074Z,77.90
2019-04-06T00:29:12.602Z,77.60
2019-04-06T00:32:06.143Z,77.80
2019-04-06T00:34:33.994Z,77.70
2019-04-06T00:37:01.410Z,77.80
2019-04-06T00:39:29.191Z,78.00
2019-04-06T00:41:56.639Z,77.80
2019-04-06T00:44:24.134Z,77.60
2019-04-06T00:46:51.858Z,77.40
2019-04-06T00:49:19.556Z,77.50
2019-04-06T00:51:47.060Z,77.70
2019-04-06T00:54:16.218Z,78.10
2019-04-06T00:56:43.807Z,78.20
2019-04-06T00:59:11.238Z,77.70
2019-04-06T01:01:39.281Z,77.50
2019-04-06T01:04:06.818Z,77.50
2019-04-06T01:06:34.259Z,78.00
2019-04-06T01:09:01.731Z,77.70
2019-04-06T01:11:29.097Z,78.10
2019-04-06T01:13:56.778Z,77.90
2019-04-06T01:16:24.222Z,77.90
2019-04-06T01:18:51.805Z,77.70
2019-04-06T01:21:19.281Z,77.60
2019-04-06T01:23:47.076Z,77.70
2019-04-06T01:26:14.899Z,77.90
2019-04-06T01:28:42.342Z,77.90
2019-04-06T01:31:09.937Z,78.30
2019-04-06T01:33:37.861Z,78.40
2019-04-06T01:36:05.241Z,77.50
2019-04-06T01:38:32.746Z,77.40
2019-04-06T01:41:00.090Z,77.60
2019-04-06T01:43:27.409Z,77.40
2019-04-06T01:45:54.774Z,77.60
2019-04-06T01:48:22.811Z,77.40
2019-04-06T01:50:50.372Z,77.60
2019-04-06T01:53:17.968Z,77.50
2019-04-06T01:55:45.456Z,77.50
2019-04-06T01:58:12.810Z,77.70
2019-04-06T02:00:43.848Z,76.70
2019-04-06T02:03:11.341Z,77.40
2019-04-06T02:05:39.012Z,77.70
2019-04-06T02:08:06.492Z,77.20
2019-04-06T02:10:33.988Z,77.20
2019-04-06T02:13:01.528Z,78.10
2019-04-06T02:15:29.437Z,77.40
2019-04-06T02:17:57.074Z,77.30
2019-04-06T02:20:24.654Z,77.80
2019-04-06T02:22:52.113Z,77.40
2019-04-06T02:25:19.776Z,78.30
2019-04-06T02:27:47.450Z,77.60
2019-04-06T02:30:20.670Z,77.30
2019-04-06T02:33:15.054Z,77.50
2019-04-06T02:35:53.738Z,77.90
2019-04-06T02:38:29.078Z,76.70
2019-04-06T02:41:19.114Z,76.90
2019-04-06T02:43:46.866Z,76.10
2019-04-06T02:46:14.354Z,75.30
2019-04-06T02:48:41.957Z,75.70
2019-04-06T02:51:09.629Z,75.80
2019-04-06T02:53:37.207Z,76.30
2019-04-06T02:56:04.676Z,76.50
2019-04-06T02:58:32.221Z,76.70
2019-04-06T03:00:59.651Z,76.60
2019-04-06T03:03:27.229Z,76.70
2019-04-06T03:05:56.053Z,77.30
2019-04-06T03:08:23.459Z,77.10
2019-04-06T03:10:50.943Z,76.80
2019-04-06T03:13:18.532Z,76.70
2019-04-06T03:15:46.007Z,76.30
2019-04-06T03:18:13.474Z,76.30
2019-04-06T03:20:40.910Z,76.90
2019-04-06T03:23:08.405Z,76.40
2019-04-06T03:25:36.056Z,77.90
2019-04-06T03:28:03.519Z,78.50
2019-04-06T03:30:31.254Z,78.30
2019-04-06T03:32:59.126Z,78.10
2019-04-06T03:35:26.717Z,78.20
2019-04-06T03:37:54.158Z,78.40
2019-04-06T03:40:21.705Z,78.10
2019-04-06T03:42:49.201Z,78.00
2019-04-06T03:45:16.732Z,77.60
2019-04-06T03:47:44.379Z,76.90
2019-04-06T03:50:12.327Z,77.40
2019-04-06T03:52:39.743Z,77.60
2019-04-06T03:55:07.419Z,77.50
2019-04-06T03:57:34.858Z,78.40
2019-04-06T04:00:03.125Z,78.50
2019-04-06T04:02:30.801Z,78.70
2019-04-06T04:04:59.117Z,79.10
2019-04-06T04:07:27.079Z,78.60
2019-04-06T04:09:54.971Z,79.00
2019-04-06T04:12:22.519Z,79.70
2019-04-06T04:14:49.976Z,79.10
2019-04-06T04:17:17.542Z,78.50
2019-04-06T04:19:45.338Z,79.00
2019-04-06T04:22:12.942Z,78.50
2019-04-06T04:24:40.553Z,78.70
2019-04-06T04:27:08.374Z,78.60
2019-04-06T04:29:35.978Z,78.60
2019-04-06T04:32:03.510Z,78.60
2019-04-06T04:34:31.078Z,78.30
2019-04-06T04:36:59.450Z,78.20
2019-04-06T04:39:27.017Z,78.70
2019-04-06T04:41:54.859Z,78.60
2019-04-06T04:44:22.476Z,78.20
2019-04-06T04:46:50.095Z,77.70
2019-04-06T04:49:17.899Z,77.90
2019-04-06T04:51:45.693Z,77.90
2019-04-06T04:54:13.610Z,77.70
2019-04-06T04:56:41.291Z,78.20
2019-04-06T04:59:08.750Z,77.50
2019-04-06T05:01:36.386Z,77.70
2019-04-06T05:04:04.124Z,77.20
2019-04-06T05:06:31.686Z,77.20
2019-04-06T05:08:59.154Z,77.40
2019-04-06T05:11:26.623Z,77.30
2019-04-06T05:14:30.693Z,77.10
2019-04-06T05:16:58.176Z,76.20
2019-04-06T05:19:26.061Z,77.10
2019-04-06T05:21:53.607Z,77.40
2019-04-06T05:24:21.069Z,77.00
2019-04-06T05:26:48.899Z,76.80
2019-04-06T05:29:16.488Z,76.20
2019-04-06T05:31:44.014Z,76.50
2019-04-06T05:34:11.623Z,77.00
2019-04-06T05:36:39.245Z,76.40
2019-04-06T05:39:06.879Z,76.60
2019-04-06T05:41:34.322Z,76.40
2019-04-06T05:44:01.905Z,76.70
2019-04-06T05:46:29.841Z,77.00
2019-04-06T05:48:57.568Z,76.90
2019-04-06T05:51:25.038Z,77.60
2019-04-06T05:53:52.732Z,77.50
2019-04-06T05:56:22.164Z,78.00
2019-04-06T05:58:50.031Z,77.50
2019-04-06T06:01:17.576Z,77.00
2019-04-06T06:03:45.869Z,77.40
2019-04-06T06:06:13.556Z,77.10
2019-04-06T06:08:41.104Z,77.10
2019-04-06T06:11:08.925Z,77.60
2019-04-06T06:13:39.113Z,76.70
2019-04-06T06:16:06.011Z,76.80
2019-04-06T06:18:33.685Z,76.40
2019-04-06T06:21:01.153Z,76.40
2019-04-06T06:23:29.289Z,75.60
2019-04-06T06:25:56.934Z,75.20
2019-04-06T06:28:24.501Z,75.10
2019-04-06T06:30:52.105Z,75.40
2019-04-06T06:33:20.212Z,75.50
2019-04-06T06:35:47.886Z,75.60
2019-04-06T06:38:15.701Z,75.30
2019-04-06T06:40:43.131Z,75.30
2019-04-06T06:43:10.439Z,75.00
2019-04-06T06:45:38.171Z,75.70
2019-04-06T06:48:05.674Z,75.20
2019-04-06T06:50:34.682Z,75.30
2019-04-06T06:53:02.392Z,74.40
2019-04-06T06:55:29.876Z,73.20
2019-04-06T06:57:58.176Z,72.50
2019-04-06T07:00:25.717Z,72.40
2019-04-06T07:02:53.808Z,72.40
2019-04-06T07:05:21.110Z,72.00
2019-04-06T07:07:48.953Z,72.40
2019-04-06T07:10:16.341Z,72.10
2019-04-06T07:12:43.815Z,72.50
2019-04-06T07:15:11.304Z,71.90
2019-04-06T07:17:38.774Z,71.60
2019-04-06T07:20:07.070Z,71.90
2019-04-06T07:22:34.849Z,72.90
2019-04-06T07:25:02.706Z,72.20
2019-04-06T07:27:30.216Z,72.00
2019-04-06T07:29:57.931Z,71.80
2019-04-06T07:32:25.353Z,72.20
2019-04-06T07:34:52.671Z,71.70
2019-04-06T07:37:20.135Z,71.50
2019-04-06T07:39:47.705Z,72.50
2019-04-06T07:42:15.104Z,71.90
2019-04-06T07:44:42.603Z,71.60
2019-04-06T07:47:10.175Z,71.40
2019-04-06T07:49:38.026Z,72.20
2019-04-06T07:52:05.367Z,72.70
2019-04-06T07:54:32.837Z,71.90
2019-04-06T07:57:00.500Z,72.90
2019-04-06T07:59:27.866Z,72.80
2019-04-06T08:01:55.380Z,71.50
2019-04-06T08:04:22.767Z,71.50
2019-04-06T08:06:50.433Z,71.80
2019-04-06T08:09:17.943Z,72.00
2019-04-06T08:11:45.317Z,73.30
2019-04-06T08:14:12.769Z,72.30
2019-04-06T08:16:40.395Z,71.80
2019-04-06T08:19:07.840Z,71.50
2019-04-06T08:21:35.296Z,70.40
2019-04-06T08:24:02.765Z,70.90
2019-04-06T08:26:30.279Z,70.70
2019-04-06T08:29:01.398Z,70.20
2019-04-06T08:31:27.808Z,71.50
2019-04-06T08:33:56.341Z,71.00
2019-04-06T08:36:24.767Z,70.60
2019-04-06T08:38:53.002Z,69.90
2019-04-06T08:41:21.106Z,69.80
2019-04-06T08:43:48.960Z,69.80
2019-04-06T08:46:18.927Z,70.20
2019-04-06T08:48:46.625Z,69.30
2019-04-06T08:51:15.022Z,69.80
2019-04-06T08:53:43.288Z,68.80
2019-04-06T08:56:11.265Z,68.80
2019-04-06T08:58:39.077Z,68.10
2019-04-06T09:01:07.208Z,66.00
2019-04-06T09:03:35.251Z,66.20
2019-04-06T09:06:03.449Z,65.80
2019-04-06T09:08:32.178Z,64.10
2019-04-06T09:11:00.446Z,64.60
2019-04-06T09:13:29.111Z,64.10
2019-04-06T09:15:56.929Z,63.80
2019-04-06T09:18:25.059Z,63.80
2019-04-06T09:20:53.956Z,63.30
2019-04-06T09:23:22.120Z,63.80
2019-04-06T09:25:50.477Z,63.50
2019-04-06T09:28:18.492Z,63.90
2019-04-06T09:30:46.754Z,65.40
2019-04-06T09:33:14.968Z,65.60
2019-04-06T09:35:43.655Z,64.60
2019-04-06T09:38:18.575Z,65.60
2019-04-06T09:40:47.955Z,65.30
2019-04-06T09:43:15.972Z,64.70
2019-04-06T09:46:12.816Z,63.60
2019-04-06T09:49:09.663Z,63.40
2019-04-06T09:52:04.671Z,63.50
2019-04-06T09:55:04.125Z,63.30
2019-04-06T09:57:49.997Z,62.80
2019-04-06T10:00:32.584Z,63.50
2019-04-06T10:03:23.575Z,63.00
2019-04-06T10:06:09.976Z,63.30
2019-04-06T10:08:58.735Z,62.20
2019-04-06T10:11:50.162Z,62.50
2019-04-06T10:14:53.363Z,61.80
2019-04-06T10:17:40.322Z,62.00
2019-04-06T10:20:32.517Z,61.40
2019-04-06T10:23:15.156Z,61.70
2019-04-06T10:25:58.382Z,62.80
2019-04-06T10:28:58.204Z,61.90
2019-04-06T10:31:54.852Z,61.90
2019-04-06T10:34:45.493Z,62.30
2019-04-06T10:37:32.963Z,61.60
2019-04-06T10:40:29.642Z,61.50
2019-04-06T10:43:32.555Z,62.10
2019-04-06T10:46:26.291Z,64.10
2019-04-06T10:49:06.222Z,63.20
2019-04-06T10:51:53.743Z,64.60
2019-04-06T10:54:30.291Z,64.30
2019-04-06T10:57:26.008Z,64.10
2019-04-06T11:00:12.954Z,63.00
2019-04-06T11:02:53.617Z,63.00
2019-04-06T11:05:43.584Z,63.00
2019-04-06T11:08:29.537Z,60.40
2019-04-06T11:11:17.967Z,59.40
2019-04-06T11:13:52.532Z,59.60
2019-04-06T11:16:42.481Z,62.90
2019-04-06T11:19:29.731Z,55.70
2019-04-06T11:22:17.077Z,50.20
2019-04-06T11:25:04.522Z,51.00
2019-04-06T11:27:57.110Z,50.60
2019-04-06T11:30:37.769Z,51.00
2019-04-06T11:33:27.225Z,53.00
2019-04-06T11:36:02.899Z,53.10
2019-04-06T11:38:38.111Z,53.70
2019-04-06T11:41:28.110Z,56.10
2019-04-06T11:44:33.506Z,57.30
2019-04-06T11:47:13.424Z,58.10
2019-04-06T11:49:46.654Z,59.10
2019-04-06T11:52:45.513Z,58.80
2019-04-06T11:55:30.884Z,58.10
2019-04-06T11:58:14.009Z,56.60
2019-04-06T12:00:50.485Z,55.70
2019-04-06T12:03:49.890Z,57.20
2019-04-06T12:06:35.578Z,58.00
2019-04-06T12:09:24.771Z,57.20
2019-04-06T12:12:11.742Z,56.20
2019-04-06T12:14:58.735Z,52.00
2019-04-06T12:17:40.031Z,50.80
2019-04-06T12:20:33.421Z,49.00
2019-04-06T12:23:19.002Z,44.80
2019-04-06T12:25:53.672Z,41.30
2019-04-06T12:28:35.816Z,40.10
2019-04-06T12:31:23.310Z,39.20
2019-04-06T12:34:13.342Z,36.90
2019-04-06T12:37:06.438Z,35.90
2019-04-06T12:39:54.701Z,37.40
2019-04-06T12:42:41.889Z,40.00
2019-04-06T12:45:27.866Z,40.40
2019-04-06T12:48:15.143Z,41.10
2019-04-06T12:51:00.954Z,42.80
2019-04-06T12:53:46.553Z,43.30
2019-04-06T12:56:22.912Z,44.30
2019-04-06T12:59:08.500Z,43.80
2019-04-06T13:02:05.125Z,43.50
2019-04-06T13:05:00.863Z,43.30
2019-04-06T13:07:46.695Z,43.00
2019-04-06T13:10:32.681Z,42.60
2019-04-06T13:13:09.981Z,41.70
2019-04-06T13:15:49.013Z,40.90
2019-04-06T13:18:42.277Z,41.40
2019-04-06T13:21:30.181Z,39.20
2019-04-06T13:24:13.279Z,35.50
2019-04-06T13:27:09.342Z,34.80
2019-04-06T13:30:05.274Z,33.70
2019-04-06T13:32:51.350Z,32.50
2019-04-06T13:35:37.905Z,30.50
2019-04-06T13:38:26.056Z,28.60
2019-04-06T13:41:00.645Z,27.60
2019-04-06T13:43:53.679Z,25.80
2019-04-06T13:46:31.408Z,26.30
2019-04-06T13:49:27.730Z,26.50
2019-04-06T13:52:13.438Z,26.10
2019-04-06T13:55:09.881Z,26.00
2019-04-06T13:57:57.249Z,26.00
2019-04-06T14:00:35.398Z,28.40
2019-04-06T14:03:35.872Z,29.10
2019-04-06T14:06:38.557Z,29.80
2019-04-06T14:09:26.890Z,30.70
2019-04-06T14:12:13.177Z,31.50
2019-04-06T14:15:01.313Z,32.30
2019-04-06T14:17:48.796Z,31.60
2019-04-06T14:20:34.714Z,29.60
2019-04-06T14:23:30.427Z,28.50
2019-04-06T14:26:17.471Z,29.30
2019-04-06T14:28:58.373Z,30.10
2019-04-06T14:31:49.526Z,30.20
2019-04-06T14:34:34.810Z,29.10
2019-04-06T14:37:28.404Z,26.90
2019-04-06T14:40:13.006Z,24.10
2019-04-06T14:42:59.116Z,23.90
2019-04-06T14:45:46.585Z,24.10
2019-04-06T14:48:29.880Z,25.70
2019-04-06T14:51:10.566Z,26.50
2019-04-06T14:54:00.902Z,27.50
2019-04-06T14:56:35.815Z,27.20
2019-04-06T14:59:21.652Z,27.60
2019-04-06T15:02:11.662Z,29.20
2019-04-06T15:04:50.710Z,28.90
2019-04-06T15:07:30.735Z,28.50
2019-04-06T15:10:07.413Z,28.80
2019-04-06T15:13:03.739Z,29.50
2019-04-06T15:15:49.457Z,32.20
2019-04-06T15:18:39.823Z,33.80
2019-04-06T15:21:35.549Z,32.90
2019-04-06T15:24:15.474Z,32.30
2019-04-06T15:27:05.888Z,33.50
2019-04-06T15:30:04.826Z,34.90
2019-04-06T15:32:54.547Z,34.70
2019-04-06T15:35:49.050Z,33.40
2019-04-06T15:38:44.035Z,32.30
2019-04-06T15:41:54.355Z,32.80
2019-04-06T15:44:35.794Z,34.40
2019-04-06T15:47:23.204Z,36.70
2019-04-06T15:50:19.604Z,38.30
2019-04-06T15:53:11.803Z,38.20
2019-04-06T15:55:45.424Z,37.80
2019-04-06T15:58:47.950Z,39.70
2019-04-06T16:01:40.870Z,41.50
2019-04-06T16:04:21.390Z,42.90
2019-04-06T16:07:14.629Z,44.20
2019-04-06T16:10:00.404Z,44.10
2019-04-06T16:12:43.329Z,44.20
2019-04-06T16:15:48.862Z,43.70
2019-04-06T16:18:48.339Z,44.70
2019-04-06T16:21:35.278Z,44.70
2019-04-06T16:24:28.872Z,45.70
2019-04-06T16:27:14.656Z,46.50
2019-04-06T16:29:58.474Z,46.30
2019-04-06T16:32:44.227Z,46.20
2019-04-06T16:35:30.112Z,46.60
2019-04-06T16:38:23.163Z,47.30
2019-04-06T16:41:10.234Z,47.40
2019-04-06T16:44:15.830Z,48.30
2019-04-06T16:47:01.600Z,49.40
2019-04-06T16:50:03.920Z,50.00
2019-04-06T16:52:43.864Z,49.90
2019-04-06T16:55:39.852Z,51.30
2019-04-06T16:58:27.236Z,52.20
2019-04-06T17:01:14.075Z,52.70
2019-04-06T17:04:07.073Z,53.50
2019-04-06T17:06:53.168Z,53.20
2019-04-06T17:09:55.815Z,53.60
2019-04-06T17:12:30.900Z,53.90
2019-04-06T17:15:16.537Z,54.40
2019-04-06T17:18:08.549Z,54.50
2019-04-06T17:21:13.826Z,54.30
2019-04-06T17:23:59.731Z,55.10
2019-04-06T17:26:52.444Z,55.50
2019-04-06T17:29:36.711Z,55.30
2019-04-06T17:32:15.484Z,55.80
2019-04-06T17:34:59.672Z,56.30
2019-04-06T17:37:49.282Z,56.20
2019-04-06T17:40:48.352Z,57.00
2019-04-06T17:43:35.350Z,57.00
2019-04-06T17:46:31.519Z,57.30
2019-04-06T17:49:17.395Z,57.50
2019-04-06T17:52:10.596Z,57.80
2019-04-06T17:55:00.513Z,57.90
2019-04-06T17:57:45.727Z,58.30
2019-04-06T18:00:30.927Z,59.00
2019-04-06T18:03:13.372Z,58.90
2019-04-06T18:05:59.239Z,59.10
2019-04-06T18:08:40.406Z,59.10
2019-04-06T18:11:19.851Z,59.30
2019-04-06T18:13:51.072Z,59.40
2019-04-06T18:16:21.241Z,59.60
2019-04-06T18:18:49.050Z,59.90
2019-04-06T18:21:16.782Z,60.00
2019-04-06T18:23:44.861Z,59.90
2019-04-06T18:26:12.411Z,60.10
2019-04-06T18:28:39.936Z,60.40
2019-04-06T18:31:17.288Z,60.60
2019-04-06T18:33:45.069Z,60.70
2019-04-06T18:36:13.029Z,60.90
2019-04-06T18:38:48.047Z,60.90
2019-04-06T18:41:15.862Z,61.10
2019-04-06T18:43:43.998Z,61.20
2019-04-06T18:46:12.287Z,61.20
2019-04-06T18:48:40.487Z,61.20
2019-04-06T18:51:08.047Z,61.90
2019-04-06T18:53:35.849Z,62.00
2019-04-06T18:56:03.484Z,63.00
2019-04-06T18:58:31.194Z,63.60
2019-04-06T19:00:58.717Z,63.40
2019-04-06T19:03:27.534Z,63.40
2019-04-06T19:05:55.718Z,63.40
2019-04-06T19:08:23.358Z,63.50
2019-04-06T19:10:51.215Z,63.50
2019-04-06T19:13:19.304Z,63.30
2019-04-06T19:15:47.247Z,63.40
2019-04-06T19:18:15.807Z,63.70
2019-04-06T19:20:43.926Z,64.00
2019-04-06T19:23:12.036Z,64.40
2019-04-06T19:25:39.682Z,64.90
2019-04-06T19:28:07.680Z,65.10
2019-04-06T19:30:35.207Z,65.10
2019-04-06T19:33:02.663Z,65.10
2019-04-06T19:35:30.398Z,65.30
2019-04-06T19:37:58.432Z,65.40
2019-04-06T19:40:26.383Z,65.30
2019-04-06T19:42:54.729Z,65.40
2019-04-06T19:45:22.459Z,65.50
2019-04-06T19:47:50.837Z,65.70
2019-04-06T19:50:18.710Z,65.40
2019-04-06T19:52:47.214Z,65.50
2019-04-06T19:55:15.033Z,65.70
2019-04-06T19:57:42.799Z,65.90
2019-04-06T20:00:11.404Z,66.30
2019-04-06T20:02:39.246Z,66.70
2019-04-06T20:05:07.322Z,66.90
2019-04-06T20:07:35.454Z,67.00
2019-04-06T20:10:04.323Z,67.20
2019-04-06T20:12:32.268Z,67.30
2019-04-06T20:15:00.561Z,67.00
2019-04-06T20:17:28.796Z,66.80
2019-04-06T20:19:56.604Z,66.80
2019-04-06T20:22:24.798Z,67.00
2019-04-06T20:24:53.129Z,66.90
2019-04-06T20:27:21.151Z,66.70
2019-04-06T20:29:48.909Z,66.80
2019-04-06T20:32:16.612Z,66.80
2019-04-06T20:34:44.681Z,66.40
2019-04-06T20:37:12.807Z,66.30
2019-04-06T20:39:40.971Z,66.20
2019-04-06T20:42:08.937Z,66.00
2019-04-06T20:44:37.057Z,65.70
2019-04-06T20:47:04.850Z,65.80
2019-04-06T20:49:32.764Z,66.20
2019-04-06T20:52:00.715Z,65.80
2019-04-06T20:54:28.921Z,66.10
2019-04-06T20:56:58.238Z,65.70
2019-04-06T20:59:25.997Z,65.70
2019-04-06T21:01:53.611Z,65.70
2019-04-06T21:04:21.481Z,65.90
2019-04-06T21:06:49.437Z,65.90
2019-04-06T21:09:16.827Z,65.90
2019-04-06T21:11:44.791Z,66.00
2019-04-06T21:14:12.899Z,66.10
2019-04-06T21:16:40.373Z,66.20
2019-04-06T21:19:08.199Z,66.50
2019-04-06T21:21:35.730Z,66.80
2019-04-06T21:24:03.714Z,66.90
2019-04-06T21:26:31.452Z,67.00
2019-04-06T21:28:59.044Z,66.90
2019-04-06T21:31:26.495Z,67.30
2019-04-06T21:33:54.071Z,67.60
2019-04-06T21:36:21.839Z,67.60
2019-04-06T21:38:49.432Z,67.30
2019-04-06T21:41:16.972Z,67.50
2019-04-06T21:43:44.735Z,67.40
2019-04-06T21:46:12.391Z,67.70
2019-04-06T21:48:40.332Z,67.70
2019-04-06T21:51:07.970Z,67.90
2019-04-06T21:53:35.820Z,68.10
2019-04-06T21:56:07.359Z,68.10
2019-04-06T21:58:32.688Z,68.40
2019-04-06T22:01:00.732Z,68.30
2019-04-06T22:03:28.204Z,68.70
2019-04-06T22:05:55.880Z,68.50
2019-04-06T22:08:23.340Z,68.40
2019-04-06T22:10:50.861Z,68.50
2019-04-06T22:13:18.591Z,68.20
2019-04-06T22:15:46.187Z,68.20
2019-04-06T22:18:13.673Z,68.30
2019-04-06T22:20:41.349Z,68.40
2019-04-06T22:23:09.416Z,68.20
2019-04-06T22:25:36.837Z,67.70
2019-04-06T22:28:04.236Z,67.70
2019-04-06T22:30:31.647Z,67.70
2019-04-06T22:32:59.003Z,67.90
2019-04-06T22:35:26.432Z,67.80
2019-04-06T22:37:55.365Z,67.80
2019-04-06T22:40:23.433Z,67.60
2019-04-06T22:42:51.452Z,67.80
2019-04-06T22:45:20.283Z,67.70
2019-04-06T22:47:47.703Z,67.80
2019-04-06T22:50:15.394Z,67.60
2019-04-06T22:52:43.340Z,67.70
2019-04-06T22:55:11.642Z,67.50
2019-04-06T22:57:39.693Z,67.50
2019-04-06T23:00:08.482Z,68.00
2019-04-06T23:02:46.510Z,68.10
2019-04-06T23:05:26.795Z,67.80
2019-04-06T23:07:54.406Z,67.80
2019-04-06T23:10:21.882Z,67.60
2019-04-06T23:12:49.675Z,67.50
2019-04-06T23:15:17.514Z,67.30
2019-04-06T23:17:45.093Z,67.50
2019-04-06T23:20:12.433Z,67.10
2019-04-06T23:22:39.872Z,66.90
2019-04-06T23:25:07.307Z,67.00
2019-04-06T23:27:35.306Z,67.00
2019-04-06T23:30:03.755Z,66.90
2019-04-06T23:32:31.865Z,66.90
2019-04-06T23:35:02.037Z,66.60
2019-04-06T23:37:28.793Z,66.40
2019-04-06T23:39:56.243Z,66.30
2019-04-06T23:42:23.934Z,66.50
2019-04-06T23:44:52.050Z,66.50
2019-04-06T23:47:19.479Z,66.50
2019-04-06T23:49:46.918Z,66.90
2019-04-06T23:52:14.651Z,66.70
2019-04-06T23:54:42.059Z,66.50
2019-04-06T23:57:09.574Z,66.50
2019-04-06T23:59:37.096Z,66.50
